.
WxDataArchive / Data Records for 2009-12-30
2009-12-29 December 2009 2009-12-31

Data Records for Wednesday, 30 December 2009

Time	Temp	Chill	HIndex	Humid	Dewpt	 Wind 	HiWind	WindDir	Rain 	Barom 
-----	----	-----	------	-----	-----	------	------	-------	-----	----- 
00:00	13.3	13.3	13.3	87	10.2	0	0	---	0.00	30.444 
00:05	13.3	13.3	13.3	87	10.2	0	0	---	0.00	30.444 
00:10	13.3	13.3	13.3	87	10.2	0	0	---	0.00	30.444 
00:15	13.1	13.1	13.1	87	10.0	0	0	---	0.00	30.439 
00:20	13.1	13.1	13.1	87	10.0	0	0	---	0.00	30.439 
00:25	12.9	12.9	12.9	87	9.8	0	0	---	0.00	30.439 
00:30	13.1	13.1	13.1	88	10.2	0	0	---	0.00	30.432 
00:35	13.1	13.1	13.1	88	10.2	0	0	---	0.00	30.432 
00:40	13.1	13.1	13.1	88	10.2	0	0	---	0.00	30.432 
00:45	13.3	13.3	13.3	88	10.4	0	0	---	0.00	30.428 
00:50	13.5	13.5	13.5	88	10.6	0	0	---	0.00	30.428 
00:55	13.5	13.5	13.5	88	10.6	0	0	---	0.00	30.428 
01:00	13.6	13.6	13.6	88	10.7	0	0	---	0.00	30.427 
01:05	13.8	13.8	13.8	88	10.9	0	0	---	0.00	30.427 
01:10	14.0	14.0	14.0	88	11.1	0	0	---	0.00	30.427 
01:15	14.1	14.1	14.1	88	11.2	0	0	---	0.00	30.420 
01:20	14.1	14.1	14.1	88	11.2	0	0	---	0.00	30.420 
01:25	14.3	14.3	14.3	88	11.4	0	0	---	0.00	30.420 
01:30	14.4	14.4	14.4	88	11.5	0	0	---	0.00	30.425 
01:35	14.8	14.8	14.8	88	11.9	0	0	---	0.00	30.425 
01:40	14.9	14.9	14.9	88	12.0	0	0	---	0.00	30.425 
01:45	14.9	14.9	14.9	88	12.0	0	0	---	0.00	30.412 
01:50	14.8	14.8	14.8	87	11.6	0	0	---	0.00	30.412 
01:55	14.6	14.6	14.6	87	11.4	0	0	---	0.00	30.412 
02:00	14.6	14.6	14.6	87	11.4	0	0	---	0.00	30.414 
02:05	14.6	14.6	14.6	88	11.7	0	0	---	0.00	30.414 
02:10	14.6	14.6	14.6	88	11.7	0	0	---	0.00	30.414 
02:15	14.9	14.9	14.9	88	12.0	0	0	---	0.00	30.410 
02:20	15.2	15.2	15.2	87	12.0	0	0	---	0.00	30.410 
02:25	15.4	15.4	15.4	87	12.2	0	0	---	0.00	30.410 
02:30	15.6	15.6	15.6	87	12.4	0	0	---	0.00	30.409 
02:35	15.6	15.6	15.6	86	12.2	0	0	---	0.00	30.409 
02:40	15.6	15.6	15.6	86	12.2	0	0	---	0.00	30.409 
02:45	15.6	15.6	15.6	86	12.2	0	1	90	0.00	30.409 
02:50	15.7	15.7	15.7	85	12.0	0	1	90	0.00	30.409 
02:55	15.9	15.9	15.9	85	12.2	0	1	90	0.00	30.409 
03:00	15.9	15.9	15.9	85	12.2	0	0	---	0.00	30.406 
03:05	15.9	15.9	15.9	85	12.2	0	0	---	0.00	30.406 
03:10	15.9	15.9	15.9	84	11.9	0	1	90	0.00	30.406 
03:15	16.1	16.1	16.1	84	12.1	0	1	90	0.00	30.399 
03:20	16.1	16.1	16.1	84	12.1	0	2	90	0.00	30.399 
03:25	16.2	16.2	16.2	84	12.2	0	1	90	0.00	30.399 
03:30	16.4	16.4	16.4	83	12.2	0	2	90	0.00	30.391 
03:35	16.5	16.5	16.5	82	12.0	0	3	90	0.00	30.391 
03:40	16.7	16.7	16.7	82	12.2	0	1	90	0.00	30.391 
03:45	16.7	16.7	16.7	82	12.2	0	1	90	0.00	30.393 
03:50	16.7	16.7	16.7	82	12.2	0	1	90	0.00	30.393 
03:55	16.9	16.9	16.9	82	12.4	0	1	90	0.00	30.393 
04:00	16.9	16.9	16.9	82	12.4	0	1	90	0.00	30.393 
04:05	17.0	17.0	17.0	81	12.2	0	1	90	0.00	30.393 
04:10	17.0	17.0	17.0	81	12.2	0	1	90	0.00	30.393 
04:15	17.2	17.2	17.2	81	12.4	0	1	90	0.00	30.388 
04:20	17.3	17.3	17.3	81	12.5	0	1	90	0.00	30.388 
04:25	17.3	17.3	17.3	80	12.2	0	0	---	0.00	30.388 
04:30	17.5	17.5	17.5	80	12.4	0	0	---	0.00	30.379 
04:35	17.7	17.7	17.7	80	12.6	0	1	90	0.00	30.379 
04:40	17.7	17.7	17.7	80	12.6	0	1	90	0.00	30.379 
04:45	17.8	17.8	17.8	80	12.7	0	1	90	0.00	30.380 
04:50	17.8	17.8	17.8	80	12.7	0	1	90	0.00	30.380 
04:55	18.0	18.0	18.0	80	12.9	0	1	90	0.00	30.380 
05:00	18.1	18.1	18.1	79	12.7	0	1	90	0.00	30.375 
05:05	18.3	18.3	18.3	79	12.9	0	2	90	0.00	30.375 
05:10	18.4	18.4	18.4	78	12.7	0	2	90	0.00	30.375 
05:15	18.6	18.6	18.6	78	12.9	1	3	90	0.00	30.368 
05:20	18.8	18.8	18.8	78	13.1	0	3	90	0.00	30.368 
05:25	18.9	18.9	18.9	78	13.2	0	1	90	0.00	30.368 
05:30	18.9	18.9	18.9	78	13.2	0	1	90	0.00	30.368 
05:35	19.1	19.1	19.1	78	13.4	0	1	90	0.00	30.368 
05:40	19.1	19.1	19.1	78	13.4	0	1	90	0.00	30.368 
05:45	19.2	19.2	19.2	78	13.5	0	1	90	0.00	30.364 
05:50	19.2	19.2	19.2	78	13.5	0	2	90	0.00	30.364 
05:55	19.4	19.4	19.4	78	13.7	1	2	90	0.00	30.364 
06:00	19.5	19.5	19.5	77	13.5	1	2	90	0.00	30.355 
06:05	19.7	19.7	19.7	77	13.7	0	2	90	0.00	30.355 
06:10	19.7	19.7	19.7	77	13.7	0	2	90	0.00	30.355 
06:15	19.7	19.7	19.7	77	13.7	0	1	90	0.00	30.358 
06:20	19.9	19.9	19.9	78	14.2	0	1	90	0.00	30.358 
06:25	19.9	19.9	19.9	78	14.2	0	2	90	0.00	30.358 
06:30	19.9	19.9	19.9	78	14.2	0	2	90	0.00	30.349 
06:35	19.9	19.9	19.9	78	14.2	0	2	90	0.00	30.349 
06:40	20.0	20.0	20.0	78	14.3	0	1	90	0.00	30.349 
06:45	20.0	20.0	20.0	78	14.3	0	3	90	0.00	30.347 
06:50	20.2	20.2	20.2	78	14.5	0	2	90	0.00	30.347 
06:55	20.2	20.2	20.2	78	14.5	0	2	90	0.00	30.347 
07:00	20.2	20.2	20.2	78	14.5	1	4	90	0.00	30.339 
07:05	20.3	20.3	20.3	78	14.6	0	2	90	0.00	30.339 
07:10	20.3	20.3	20.3	78	14.6	1	2	90	0.00	30.339 
07:15	20.3	20.3	20.3	78	14.6	0	2	90	0.00	30.335 
07:20	20.3	20.3	20.3	78	14.6	0	1	90	0.00	30.335 
07:25	20.3	20.3	20.3	78	14.6	0	1	90	0.00	30.335 
07:30	20.3	20.3	20.3	78	14.6	0	2	90	0.00	30.332 
07:35	20.3	20.3	20.3	78	14.6	0	2	90	0.00	30.332 
07:40	20.3	20.3	20.3	78	14.6	0	1	90	0.00	30.332 
07:45	20.3	20.3	20.3	78	14.6	0	1	90	0.00	30.321 
07:50	20.5	20.5	20.5	78	14.8	1	3	90	0.00	30.321 
07:55	20.5	20.5	20.5	78	14.8	1	3	90	0.00	30.321 
08:00	20.6	20.6	20.6	78	14.8	1	3	90	0.00	30.309 
08:05	20.8	20.8	20.8	78	15.0	1	3	90	0.00	30.309 
08:10	20.8	20.8	20.8	78	15.0	1	4	90	0.00	30.309 
08:15	20.8	20.8	20.8	79	15.3	0	2	90	0.00	30.313 
08:20	21.0	21.0	21.0	79	15.5	0	2	90	0.00	30.313 
08:25	21.0	21.0	21.0	79	15.5	1	3	112	0.00	30.313 
08:30	21.1	21.1	21.1	79	15.6	1	3	112	0.00	30.293 
08:35	21.1	21.1	21.1	79	15.6	0	2	112	0.00	30.293 
08:40	21.3	21.3	21.3	80	16.1	0	1	112	0.00	30.293 
08:45	21.4	21.4	21.4	80	16.2	0	1	112	0.00	30.323 
08:50	21.6	21.6	21.6	80	16.4	0	2	112	0.00	30.323 
08:55	21.8	21.8	21.8	79	16.3	1	3	112	0.00	30.323 
09:00	21.9	21.9	21.9	78	16.1	1	3	112	0.00	30.306 
09:05	22.1	22.1	22.1	78	16.3	0	2	90	0.00	30.306 
09:10	22.4	22.4	22.4	78	16.6	0	2	90	0.00	30.306 
09:15	22.5	22.5	22.5	77	16.4	0	3	45	0.00	30.305 
09:20	22.9	22.9	22.9	76	16.5	1	4	68	0.00	30.305 
09:25	23.0	23.0	23.0	76	16.6	1	6	68	0.00	30.305 
09:30	23.2	23.2	23.2	75	16.5	1	4	112	0.00	30.303 
09:35	23.5	23.5	23.5	74	16.5	1	4	135	0.00	30.303 
09:40	23.6	23.6	23.6	74	16.6	1	4	90	0.00	30.303 
09:45	23.8	23.8	23.8	74	16.7	1	4	90	0.00	30.298 
09:50	23.9	23.9	23.9	73	16.5	1	3	112	0.00	30.298 
09:55	24.2	24.2	24.2	73	16.8	1	5	135	0.00	30.298 
10:00	24.4	24.4	24.4	73	17.0	0	3	135	0.00	30.290 
10:05	24.5	24.5	24.5	72	16.8	2	5	112	0.00	30.290 
10:10	24.7	24.7	24.7	72	17.0	1	4	112	0.00	30.290 
10:15	24.8	24.8	24.8	72	17.1	1	5	90	0.00	30.284 
10:20	24.8	24.8	24.8	71	16.8	2	4	90	0.00	30.284 
10:25	25.0	25.0	25.0	71	16.9	1	5	112	0.00	30.284 
10:30	25.3	25.3	25.3	72	17.6	1	4	112	0.00	30.282 
10:35	25.4	25.4	25.4	71	17.3	1	3	90	0.00	30.282 
10:40	25.6	25.6	25.6	71	17.5	1	3	90	0.00	30.282 
10:45	25.7	25.7	25.7	70	17.3	1	4	112	0.00	30.273 
10:50	25.8	25.8	25.8	70	17.4	1	3	112	0.00	30.273 
10:55	26.0	26.0	26.0	70	17.6	1	3	90	0.00	30.273 
11:00	26.0	26.0	26.0	70	17.6	1	4	90	0.00	30.267 
11:05	26.3	26.3	26.3	70	17.9	1	3	135	0.00	30.267 
11:10	26.4	26.4	26.4	70	18.0	0	3	158	0.00	30.267 
11:15	26.7	26.7	26.7	69	17.9	1	3	135	0.00	30.258 
11:20	26.9	26.9	26.9	69	18.1	1	3	90	0.00	30.258 
11:25	27.2	27.2	27.2	69	18.4	0	2	90	0.00	30.258 
11:30	27.5	27.5	27.5	68	18.3	1	4	90	0.00	30.247 
11:35	27.5	27.5	27.5	68	18.3	1	3	135	0.00	30.247 
11:40	27.6	27.6	27.6	68	18.4	1	3	112	0.00	30.247 
11:45	27.8	27.8	27.8	67	18.3	1	6	112	0.00	30.228 
11:50	27.9	27.9	27.9	68	18.7	1	3	90	0.00	30.228 
11:55	28.1	28.1	28.1	67	18.6	1	4	90	0.00	30.228 
12:00	28.2	28.2	28.2	67	18.7	1	4	112	0.00	30.221 
12:05	28.5	28.5	28.5	67	19.0	1	3	135	0.00	30.221 
12:10	28.7	28.7	28.7	67	19.2	1	2	112	0.00	30.221 
12:15	28.8	28.8	28.8	66	18.9	1	4	112	0.00	30.208 
12:20	28.8	28.8	28.8	66	18.9	1	5	45	0.00	30.208 
12:25	29.1	29.1	29.1	66	19.2	1	4	135	0.00	30.208 
12:30	29.3	29.3	29.3	65	19.0	1	4	112	0.00	30.195 
12:35	29.4	29.4	29.4	65	19.1	1	4	90	0.00	30.195 
12:40	29.5	29.5	29.5	66	19.6	1	3	90	0.00	30.195 
12:45	29.7	29.7	29.7	65	19.4	1	3	112	0.00	30.184 
12:50	29.7	29.7	29.7	65	19.4	1	5	90	0.00	30.184 
12:55	29.5	29.5	29.5	65	19.2	2	4	90	0.00	30.184 
13:00	29.5	29.5	29.5	65	19.2	1	4	90	0.00	30.172 
13:05	29.7	29.7	29.7	65	19.4	1	5	90	0.00	30.172 
13:10	29.7	29.7	29.7	65	19.4	1	3	90	0.00	30.172 
13:15	29.7	29.7	29.7	65	19.4	1	3	68	0.00	30.169 
13:20	29.8	29.8	29.8	66	19.8	1	2	90	0.00	30.169 
13:25	30.0	30.0	30.0	66	20.0	0	2	90	0.00	30.169 
13:30	30.1	30.1	30.1	66	20.1	0	2	90	0.00	30.156 
13:35	30.3	30.3	30.3	65	20.0	0	2	90	0.00	30.156 
13:40	30.1	30.1	30.1	65	19.8	1	4	90	0.00	30.156 
13:45	30.1	30.1	30.1	65	19.8	1	4	112	0.00	30.148 
13:50	30.1	30.1	30.1	66	20.1	1	4	90	0.00	30.148 
13:55	30.3	30.3	30.3	67	20.7	0	2	248	0.00	30.148 
14:00	30.3	30.3	30.3	65	20.0	2	5	90	0.00	30.139 
14:05	30.4	30.4	30.4	65	20.1	1	4	90	0.00	30.139 
14:10	30.4	30.4	30.4	65	20.1	2	6	112	0.00	30.139 
14:15	30.4	30.4	30.4	65	20.1	1	4	90	0.00	30.135 
14:20	30.6	30.6	30.6	66	20.6	1	3	135	0.00	30.135 
14:25	30.7	30.7	30.7	65	20.3	1	3	112	0.00	30.135 
14:30	31.0	31.0	31.0	66	21.0	0	1	112	0.00	30.130 
14:35	31.2	31.2	31.2	65	20.8	1	2	112	0.00	30.130 
14:40	31.2	31.2	31.2	65	20.8	1	2	112	0.00	30.130 
14:45	31.2	31.2	31.2	65	20.8	1	4	112	0.00	30.132 
14:50	31.5	31.5	31.5	65	21.1	0	4	270	0.00	30.132 
14:55	31.5	31.5	31.5	65	21.1	1	3	90	0.00	30.132 
15:00	31.8	31.8	31.8	65	21.4	1	3	248	0.00	30.119 
15:05	31.8	31.8	31.8	64	21.0	1	2	112	0.00	30.119 
15:10	31.8	31.8	31.8	63	20.7	0	3	225	0.00	30.119 
15:15	31.9	31.9	31.9	63	20.8	0	2	225	0.00	30.108 
15:20	31.9	31.9	31.9	63	20.8	0	3	270	0.00	30.108 
15:25	32.1	32.1	32.1	64	21.3	0	2	270	0.00	30.108 
15:30	32.2	32.2	32.2	63	21.0	0	2	338	0.00	30.108 
15:35	32.2	32.2	32.2	63	21.0	1	3	338	0.00	30.108 
15:40	32.2	32.2	32.2	64	21.4	0	2	0	0.00	30.108 
15:45	32.2	32.2	32.2	64	21.4	0	2	0	0.00	30.110 
15:50	32.2	32.2	32.2	64	21.4	0	2	0	0.00	30.110 
15:55	31.9	31.9	31.9	64	21.1	1	4	0	0.00	30.110 
16:00	31.8	31.8	31.8	64	21.0	1	3	90	0.00	30.110 
16:05	31.6	31.6	31.6	65	21.2	1	3	270	0.01	30.110 
16:10	31.3	31.3	31.3	65	20.9	1	6	112	0.00	30.110 
16:15	31.3	31.3	31.3	65	20.9	1	4	112	0.00	30.104 
16:20	31.2	31.2	31.2	65	20.8	1	3	225	0.00	30.104 
16:25	31.2	31.2	31.2	66	21.2	0	2	248	0.00	30.104 
16:30	31.2	31.2	31.2	67	21.5	0	3	248	0.00	30.105 
16:35	31.2	31.2	31.2	67	21.5	1	3	68	0.00	30.105 
16:40	31.2	31.2	31.2	67	21.5	1	3	68	0.00	30.105 
16:45	31.0	31.0	31.0	67	21.3	1	2	45	0.00	30.104 
16:50	31.0	31.0	31.0	68	21.7	0	1	45	0.00	30.104 
16:55	31.0	31.0	31.0	69	22.0	0	2	45	0.00	30.104 
17:00	31.0	31.0	31.0	69	22.0	1	3	45	0.00	30.103 
17:05	31.0	31.0	31.0	69	22.0	0	2	45	0.00	30.103 
17:10	30.9	30.9	30.9	69	21.9	0	3	112	0.00	30.103 
17:15	30.9	30.9	30.9	70	22.3	1	5	112	0.00	30.101 
17:20	30.6	30.6	30.6	73	23.0	1	3	315	0.00	30.101 
17:25	30.3	30.3	30.3	75	23.3	0	3	248	0.00	30.101 
17:30	30.1	30.1	30.1	76	23.5	0	2	248	0.00	30.100 
17:35	30.1	30.1	30.1	77	23.8	0	2	248	0.00	30.100 
17:40	30.0	30.0	30.0	78	24.0	0	1	248	0.00	30.100 
17:45	30.0	30.0	30.0	79	24.3	0	1	248	0.00	30.100 
17:50	29.8	29.8	29.8	80	24.4	0	2	248	0.00	30.100 
17:55	29.8	29.8	29.8	81	24.7	1	3	68	0.00	30.100 
18:00	29.7	29.7	29.7	83	25.2	0	3	225	0.00	30.094 
18:05	29.5	29.5	29.5	84	25.3	1	4	90	0.00	30.094 
18:10	29.5	29.5	29.5	84	25.3	0	1	90	0.00	30.094 
18:15	29.5	29.5	29.5	85	25.6	0	3	90	0.00	30.092 
18:20	29.5	29.5	29.5	85	25.6	1	4	68	0.00	30.092 
18:25	29.5	29.5	29.5	86	25.8	0	2	112	0.00	30.092 
18:30	29.5	29.5	29.5	87	26.1	0	2	270	0.00	30.090 
18:35	29.5	29.5	29.5	87	26.1	1	5	90	0.00	30.090 
18:40	29.5	29.5	29.5	87	26.1	0	2	68	0.00	30.090 
18:45	29.5	29.5	29.5	88	26.4	1	3	90	0.00	30.087 
18:50	29.4	29.4	29.4	88	26.3	1	3	90	0.00	30.087 
18:55	29.4	29.4	29.4	88	26.3	1	3	112	0.00	30.087 
19:00	29.5	29.5	29.5	89	26.7	1	3	338	0.00	30.088 
19:05	29.5	29.5	29.5	89	26.7	1	2	45	0.00	30.088 
19:10	29.5	29.5	29.5	89	26.7	0	2	45	0.00	30.088 
19:15	29.5	29.5	29.5	89	26.7	0	3	90	0.00	30.081 
19:20	29.5	29.5	29.5	89	26.7	1	3	90	0.00	30.081 
19:25	29.5	29.5	29.5	89	26.7	0	2	90	0.00	30.081 
19:30	29.5	29.5	29.5	89	26.7	1	3	90	0.00	30.076 
19:35	29.5	29.5	29.5	89	26.7	1	3	112	0.00	30.076 
19:40	29.5	29.5	29.5	89	26.7	1	5	112	0.00	30.076 
19:45	29.7	29.7	29.7	89	26.9	1	3	90	0.00	30.071 
19:50	29.7	29.7	29.7	89	26.9	2	5	90	0.00	30.071 
19:55	29.8	29.8	29.8	89	27.0	1	4	90	0.00	30.071 
20:00	29.8	29.8	29.8	89	27.0	1	7	135	0.00	30.069 
20:05	29.8	29.8	29.8	89	27.0	1	3	135	0.00	30.069 
20:10	30.0	30.0	30.0	89	27.2	1	6	90	0.00	30.069 
20:15	30.0	30.0	30.0	89	27.2	1	5	90	0.00	30.068 
20:20	30.0	30.0	30.0	89	27.2	1	4	90	0.00	30.068 
20:25	30.0	30.0	30.0	89	27.2	1	4	90	0.00	30.068 
20:30	30.0	30.0	30.0	90	27.4	1	5	112	0.00	30.065 
20:35	30.0	30.0	30.0	90	27.4	0	2	112	0.00	30.065 
20:40	30.0	30.0	30.0	90	27.4	1	3	112	0.00	30.065 
20:45	30.0	30.0	30.0	90	27.4	0	2	112	0.00	30.058 
20:50	30.0	30.0	30.0	90	27.4	0	3	112	0.00	30.058 
20:55	30.0	30.0	30.0	90	27.4	0	1	112	0.00	30.058 
21:00	30.0	30.0	30.0	90	27.4	0	3	112	0.00	30.051 
21:05	30.1	30.1	30.1	90	27.5	0	2	112	0.00	30.051 
21:10	30.1	30.1	30.1	90	27.5	0	3	112	0.00	30.051 
21:15	30.1	30.1	30.1	90	27.5	0	2	112	0.00	30.049 
21:20	30.3	30.3	30.3	91	28.0	1	2	112	0.00	30.049 
21:25	30.3	30.3	30.3	91	28.0	1	3	112	0.00	30.049 
21:30	30.4	30.4	30.4	91	28.1	1	3	225	0.00	30.051 
21:35	30.4	30.4	30.4	91	28.1	1	3	248	0.00	30.051 
21:40	30.6	30.6	30.6	91	28.3	1	2	248	0.00	30.051 
21:45	30.6	30.6	30.6	91	28.3	1	3	292	0.00	30.047 
21:50	30.7	30.7	30.7	91	28.4	1	4	90	0.00	30.047 
21:55	30.7	30.7	30.7	91	28.4	0	2	270	0.00	30.047 
22:00	30.7	30.7	30.7	91	28.4	0	2	270	0.00	30.044 
22:05	30.7	30.7	30.7	91	28.4	0	2	270	0.00	30.044 
22:10	30.7	30.7	30.7	91	28.4	0	1	270	0.00	30.044 
22:15	30.7	30.7	30.7	91	28.4	0	2	270	0.00	30.032 
22:20	30.7	30.7	30.7	91	28.4	0	2	270	0.00	30.032 
22:25	30.7	30.7	30.7	92	28.7	0	2	315	0.00	30.032 
22:30	30.7	30.7	30.7	92	28.7	0	2	315	0.00	30.027 
22:35	30.7	30.7	30.7	92	28.7	0	2	0	0.00	30.027 
22:40	30.9	30.9	30.9	92	28.9	0	2	22	0.00	30.027 
22:45	30.9	30.9	30.9	92	28.9	0	2	22	0.00	30.028 
22:50	30.9	30.9	30.9	92	28.9	0	2	22	0.00	30.028 
22:55	31.0	31.0	31.0	92	29.0	0	2	315	0.00	30.028 
23:00	31.0	31.0	31.0	92	29.0	0	1	315	0.00	30.022 
23:05	31.0	31.0	31.0	92	29.0	0	2	315	0.00	30.022 
23:10	31.2	31.2	31.2	92	29.2	0	3	315	0.00	30.022 
23:15	31.3	31.3	31.3	93	29.5	0	2	270	0.00	30.015 
23:20	31.3	31.3	31.3	93	29.5	0	1	270	0.00	30.015 
23:25	31.5	31.5	31.5	93	29.7	0	2	270	0.00	30.015 
23:30	31.5	31.5	31.5	93	29.7	0	2	270	0.00	30.011 
23:35	31.6	31.6	31.6	93	29.8	0	2	270	0.00	30.011 
23:40	31.6	31.6	31.6	93	29.8	0	3	270	0.00	30.011 
23:45	31.8	31.8	31.8	93	30.0	0	2	248	0.00	30.010 
23:50	31.8	31.8	31.8	93	30.0	0	3	248	0.00	30.010 
23:55	31.9	31.9	31.9	93	30.1	0	2	248	0.00	30.010 

CoCoRaHS
IN-AL-39
A2 Web Hosting
Creative Commons License
GoDaddy
search engine by freefind advanced

loaded 2018-11-20 03:18:27 • last modified 2010-11-18 10:43:29
Privacy PolicyDisclaimer
• wx.awcolley.com is powered by PmWiki v.2002016 •
• all content (unless otherwise noted) © 2018 A W Colley